Aviation Digital Data Service (ADDS)

Output produced by METARs form (1430 UTC 10 July 2020)
found at http://www.aviationweather.gov/metar/data/
 
KSAV 101353Z 33007KT 10SM CLR 31/24 A2993 RMK AO2 SLP134 T03060239
KSAV 101125Z 1012/1112 32005KT P6SM SCT030 SCT080 
     FM102000 16008KT P6SM VCTS SCT040CB BKN080 
     FM110000 VRB03KT P6SM SCT050 BKN100